sensor_id;sensor_type;location;lat;lon;timestamp;temperature;humidity
18412;DHT22;27097;51.738;19.472;2023-05-18T00:00:02;22.40;64.10
18412;DHT22;27097;51.738;19.472;2023-05-18T00:02:31;22.40;63.80
18412;DHT22;27097;51.738;19.472;2023-05-18T00:04:58;22.40;64.10
18412;DHT22;27097;51.738;19.472;2023-05-18T00:07:26;22.40;69.00
18412;DHT22;27097;51.738;19.472;2023-05-18T00:10:09;22.40;71.60
18412;DHT22;27097;51.738;19.472;2023-05-18T00:12:36;22.40;69.90
18412;DHT22;27097;51.738;19.472;2023-05-18T00:15:04;22.40;68.20
18412;DHT22;27097;51.738;19.472;2023-05-18T00:17:31;22.30;67.50
18412;DHT22;27097;51.738;19.472;2023-05-18T00:19:58;22.40;70.10
18412;DHT22;27097;51.738;19.472;2023-05-18T00:22:25;22.40;74.30
18412;DHT22;27097;51.738;19.472;2023-05-18T00:24:52;22.40;74.80
18412;DHT22;27097;51.738;19.472;2023-05-18T00:27:20;22.40;74.90
18412;DHT22;27097;51.738;19.472;2023-05-18T00:29:47;22.40;74.70
18412;DHT22;27097;51.738;19.472;2023-05-18T00:32:14;22.40;74.30
18412;DHT22;27097;51.738;19.472;2023-05-18T00:34:40;22.40;73.90
18412;DHT22;27097;51.738;19.472;2023-05-18T00:37:07;22.40;73.60
18412;DHT22;27097;51.738;19.472;2023-05-18T00:39:34;22.40;73.40
18412;DHT22;27097;51.738;19.472;2023-05-18T00:42:01;22.40;73.10
18412;DHT22;27097;51.738;19.472;2023-05-18T00:44:29;22.40;73.10
18412;DHT22;27097;51.738;19.472;2023-05-18T00:46:56;22.40;73.00
18412;DHT22;27097;51.738;19.472;2023-05-18T00:49:24;22.40;72.60
18412;DHT22;27097;51.738;19.472;2023-05-18T00:51:52;22.40;73.90
18412;DHT22;27097;51.738;19.472;2023-05-18T00:54:19;22.40;74.60
18412;DHT22;27097;51.738;19.472;2023-05-18T00:56:47;22.40;75.00
18412;DHT22;27097;51.738;19.472;2023-05-18T00:59:14;22.40;75.20
18412;DHT22;27097;51.738;19.472;2023-05-18T01:01:44;22.40;75.40
18412;DHT22;27097;51.738;19.472;2023-05-18T01:04:11;22.40;75.50
18412;DHT22;27097;51.738;19.472;2023-05-18T01:06:40;22.40;75.70
18412;DHT22;27097;51.738;19.472;2023-05-18T01:09:09;22.40;75.80
18412;DHT22;27097;51.738;19.472;2023-05-18T01:11:50;22.40;76.00
18412;DHT22;27097;51.738;19.472;2023-05-18T01:14:24;22.40;76.10
18412;DHT22;27097;51.738;19.472;2023-05-18T01:17:02;22.40;76.20
18412;DHT22;27097;51.738;19.472;2023-05-18T01:20:03;22.40;76.30
18412;DHT22;27097;51.738;19.472;2023-05-18T01:22:37;22.40;76.30
18412;DHT22;27097;51.738;19.472;2023-05-18T01:25:16;22.40;76.50
18412;DHT22;27097;51.738;19.472;2023-05-18T01:27:45;22.40;76.50
18412;DHT22;27097;51.738;19.472;2023-05-18T01:30:14;22.40;76.60
18412;DHT22;27097;51.738;19.472;2023-05-18T01:32:44;22.40;76.70
18412;DHT22;27097;51.738;19.472;2023-05-18T01:35:11;22.40;76.60
18412;DHT22;27097;51.738;19.472;2023-05-18T01:37:38;22.40;76.90
18412;DHT22;27097;51.738;19.472;2023-05-18T01:40:07;22.40;76.70
18412;DHT22;27097;51.738;19.472;2023-05-18T01:42:42;22.40;76.80
18412;DHT22;27097;51.738;19.472;2023-05-18T01:45:16;22.40;76.90
18412;DHT22;27097;51.738;19.472;2023-05-18T01:47:45;22.40;77.00
18412;DHT22;27097;51.738;19.472;2023-05-18T01:50:15;22.40;77.00
18412;DHT22;27097;51.738;19.472;2023-05-18T01:52:47;22.40;77.10
18412;DHT22;27097;51.738;19.472;2023-05-18T01:55:17;22.40;77.00
18412;DHT22;27097;51.738;19.472;2023-05-18T01:57:47;22.40;77.30
18412;DHT22;27097;51.738;19.472;2023-05-18T02:00:17;22.40;77.40
18412;DHT22;27097;51.738;19.472;2023-05-18T02:02:44;22.40;77.20
18412;DHT22;27097;51.738;19.472;2023-05-18T02:05:11;22.40;77.30
18412;DHT22;27097;51.738;19.472;2023-05-18T02:07:38;22.40;77.40
18412;DHT22;27097;51.738;19.472;2023-05-18T02:10:09;22.40;77.50
18412;DHT22;27097;51.738;19.472;2023-05-18T02:12:36;22.40;77.50
18412;DHT22;27097;51.738;19.472;2023-05-18T02:15:03;22.40;77.50
18412;DHT22;27097;51.738;19.472;2023-05-18T02:17:32;22.40;77.80
18412;DHT22;27097;51.738;19.472;2023-05-18T02:20:01;22.40;77.80
18412;DHT22;27097;51.738;19.472;2023-05-18T02:22:30;22.40;77.80
18412;DHT22;27097;51.738;19.472;2023-05-18T02:24:57;22.40;77.80
18412;DHT22;27097;51.738;19.472;2023-05-18T02:27:24;22.40;77.70
18412;DHT22;27097;51.738;19.472;2023-05-18T02:29:51;22.40;77.90
18412;DHT22;27097;51.738;19.472;2023-05-18T02:32:18;22.40;78.00
18412;DHT22;27097;51.738;19.472;2023-05-18T02:34:50;22.40;78.10
18412;DHT22;27097;51.738;19.472;2023-05-18T02:37:17;22.40;78.10
18412;DHT22;27097;51.738;19.472;2023-05-18T02:39:44;22.40;78.20
18412;DHT22;27097;51.738;19.472;2023-05-18T02:42:11;22.40;78.10
18412;DHT22;27097;51.738;19.472;2023-05-18T02:44:38;22.40;78.20
18412;DHT22;27097;51.738;19.472;2023-05-18T02:47:06;22.40;78.10
18412;DHT22;27097;51.738;19.472;2023-05-18T02:49:33;22.40;78.30
18412;DHT22;27097;51.738;19.472;2023-05-18T02:52:01;22.40;78.30
18412;DHT22;27097;51.738;19.472;2023-05-18T02:54:28;22.40;78.30
18412;DHT22;27097;51.738;19.472;2023-05-18T02:56:56;22.40;78.40
18412;DHT22;27097;51.738;19.472;2023-05-18T02:59:23;22.40;78.30
18412;DHT22;27097;51.738;19.472;2023-05-18T03:01:50;22.40;78.50
18412;DHT22;27097;51.738;19.472;2023-05-18T03:04:17;22.50;78.50
18412;DHT22;27097;51.738;19.472;2023-05-18T03:06:44;22.40;78.70
18412;DHT22;27097;51.738;19.472;2023-05-18T03:09:13;22.40;78.70
18412;DHT22;27097;51.738;19.472;2023-05-18T03:11:41;22.40;78.70
18412;DHT22;27097;51.738;19.472;2023-05-18T03:14:08;22.40;78.80
18412;DHT22;27097;51.738;19.472;2023-05-18T03:16:35;22.40;78.80
18412;DHT22;27097;51.738;19.472;2023-05-18T03:19:03;22.40;78.80
18412;DHT22;27097;51.738;19.472;2023-05-18T03:21:30;22.40;78.80
18412;DHT22;27097;51.738;19.472;2023-05-18T03:24:01;22.40;78.80
18412;DHT22;27097;51.738;19.472;2023-05-18T03:26:29;22.40;78.80
18412;DHT22;27097;51.738;19.472;2023-05-18T03:28:58;22.40;79.00
18412;DHT22;27097;51.738;19.472;2023-05-18T03:31:25;22.40;78.90
18412;DHT22;27097;51.738;19.472;2023-05-18T03:33:52;22.50;79.00
18412;DHT22;27097;51.738;19.472;2023-05-18T03:36:19;22.40;79.10
18412;DHT22;27097;51.738;19.472;2023-05-18T03:38:47;22.50;79.20
18412;DHT22;27097;51.738;19.472;2023-05-18T03:41:14;22.40;79.20
18412;DHT22;27097;51.738;19.472;2023-05-18T03:43:42;22.50;79.30
18412;DHT22;27097;51.738;19.472;2023-05-18T03:46:09;22.40;79.20
18412;DHT22;27097;51.738;19.472;2023-05-18T03:48:36;22.40;79.10
18412;DHT22;27097;51.738;19.472;2023-05-18T03:51:04;22.50;79.30
18412;DHT22;27097;51.738;19.472;2023-05-18T03:53:31;22.50;79.30
18412;DHT22;27097;51.738;19.472;2023-05-18T03:55:58;22.50;79.30
18412;DHT22;27097;51.738;19.472;2023-05-18T03:58:25;22.50;79.20
18412;DHT22;27097;51.738;19.472;2023-05-18T04:00:53;22.50;79.20
18412;DHT22;27097;51.738;19.472;2023-05-18T04:03:20;22.50;79.30
18412;DHT22;27097;51.738;19.472;2023-05-18T04:05:49;22.50;79.50
18412;DHT22;27097;51.738;19.472;2023-05-18T04:08:17;22.50;79.40
18412;DHT22;27097;51.738;19.472;2023-05-18T04:10:44;22.50;79.40
18412;DHT22;27097;51.738;19.472;2023-05-18T04:13:11;22.50;79.50
18412;DHT22;27097;51.738;19.472;2023-05-18T04:15:38;22.50;79.60
18412;DHT22;27097;51.738;19.472;2023-05-18T04:18:06;22.50;79.40
18412;DHT22;27097;51.738;19.472;2023-05-18T04:20:34;22.50;79.50
18412;DHT22;27097;51.738;19.472;2023-05-18T04:23:02;22.50;80.00
18412;DHT22;27097;51.738;19.472;2023-05-18T04:25:30;22.50;79.80
18412;DHT22;27097;51.738;19.472;2023-05-18T04:27:57;22.50;79.80
18412;DHT22;27097;51.738;19.472;2023-05-18T04:30:25;22.50;79.80
18412;DHT22;27097;51.738;19.472;2023-05-18T04:32:54;22.50;79.70
18412;DHT22;27097;51.738;19.472;2023-05-18T04:35:24;22.50;79.70
18412;DHT22;27097;51.738;19.472;2023-05-18T04:37:51;22.60;79.80
18412;DHT22;27097;51.738;19.472;2023-05-18T04:40:19;22.60;79.80
18412;DHT22;27097;51.738;19.472;2023-05-18T04:42:45;22.60;79.90
18412;DHT22;27097;51.738;19.472;2023-05-18T04:45:13;22.60;79.90
18412;DHT22;27097;51.738;19.472;2023-05-18T04:47:48;22.60;79.80
18412;DHT22;27097;51.738;19.472;2023-05-18T04:50:18;22.60;79.60
18412;DHT22;27097;51.738;19.472;2023-05-18T04:52:47;22.60;79.50
18412;DHT22;27097;51.738;19.472;2023-05-18T04:55:15;22.60;79.50
18412;DHT22;27097;51.738;19.472;2023-05-18T04:57:53;22.60;79.70
18412;DHT22;27097;51.738;19.472;2023-05-18T05:00:21;22.60;79.80
18412;DHT22;27097;51.738;19.472;2023-05-18T05:02:49;22.60;80.00
18412;DHT22;27097;51.738;19.472;2023-05-18T05:05:16;22.60;79.60
18412;DHT22;27097;51.738;19.472;2023-05-18T05:07:45;22.70;79.40
18412;DHT22;27097;51.738;19.472;2023-05-18T05:10:20;22.70;79.10
18412;DHT22;27097;51.738;19.472;2023-05-18T05:13:02;22.70;79.20
18412;DHT22;27097;51.738;19.472;2023-05-18T05:15:40;22.70;79.10
18412;DHT22;27097;51.738;19.472;2023-05-18T05:18:21;22.70;79.00
18412;DHT22;27097;51.738;19.472;2023-05-18T05:20:54;22.70;78.90
18412;DHT22;27097;51.738;19.472;2023-05-18T05:23:28;22.70;79.00
18412;DHT22;27097;51.738;19.472;2023-05-18T05:25:55;22.80;78.80
18412;DHT22;27097;51.738;19.472;2023-05-18T05:28:22;22.80;79.00
18412;DHT22;27097;51.738;19.472;2023-05-18T05:30:49;22.80;78.40
18412;DHT22;27097;51.738;19.472;2023-05-18T05:33:18;22.80;78.50
18412;DHT22;27097;51.738;19.472;2023-05-18T05:35:45;22.80;78.30
18412;DHT22;27097;51.738;19.472;2023-05-18T05:38:12;22.80;77.20
18412;DHT22;27097;51.738;19.472;2023-05-18T05:40:47;22.90;75.80
18412;DHT22;27097;51.738;19.472;2023-05-18T05:43:32;22.90;75.20
18412;DHT22;27097;51.738;19.472;2023-05-18T05:46:08;22.90;74.70
18412;DHT22;27097;51.738;19.472;2023-05-18T05:48:49;22.90;74.90
18412;DHT22;27097;51.738;19.472;2023-05-18T05:51:29;23.00;75.60
18412;DHT22;27097;51.738;19.472;2023-05-18T05:53:56;23.00;75.90
18412;DHT22;27097;51.738;19.472;2023-05-18T05:56:24;23.00;75.60
18412;DHT22;27097;51.738;19.472;2023-05-18T05:58:51;23.00;75.60
18412;DHT22;27097;51.738;19.472;2023-05-18T06:01:18;23.00;76.00
18412;DHT22;27097;51.738;19.472;2023-05-18T06:03:46;23.00;75.00
18412;DHT22;27097;51.738;19.472;2023-05-18T06:06:13;23.00;74.10
18412;DHT22;27097;51.738;19.472;2023-05-18T06:08:40;23.00;74.90
18412;DHT22;27097;51.738;19.472;2023-05-18T06:11:07;23.00;74.20
18412;DHT22;27097;51.738;19.472;2023-05-18T06:13:36;23.00;74.60
18412;DHT22;27097;51.738;19.472;2023-05-18T06:16:03;23.00;70.50
18412;DHT22;27097;51.738;19.472;2023-05-18T06:18:29;23.00;69.00
18412;DHT22;27097;51.738;19.472;2023-05-18T06:20:56;23.00;68.90
18412;DHT22;27097;51.738;19.472;2023-05-18T06:23:23;23.00;68.80
18412;DHT22;27097;51.738;19.472;2023-05-18T06:25:50;23.00;68.70
18412;DHT22;27097;51.738;19.472;2023-05-18T06:28:17;23.00;69.00
18412;DHT22;27097;51.738;19.472;2023-05-18T06:30:46;23.00;70.40
18412;DHT22;27097;51.738;19.472;2023-05-18T06:33:12;23.00;68.60
18412;DHT22;27097;51.738;19.472;2023-05-18T06:35:40;23.00;65.20
18412;DHT22;27097;51.738;19.472;2023-05-18T06:38:06;23.00;63.90
18412;DHT22;27097;51.738;19.472;2023-05-18T06:40:34;23.00;65.30
18412;DHT22;27097;51.738;19.472;2023-05-18T06:43:00;23.00;63.90
18412;DHT22;27097;51.738;19.472;2023-05-18T06:45:27;22.90;67.60
18412;DHT22;27097;51.738;19.472;2023-05-18T06:47:56;22.90;64.90
18412;DHT22;27097;51.738;19.472;2023-05-18T06:50:23;22.90;63.80
18412;DHT22;27097;51.738;19.472;2023-05-18T06:52:50;23.00;62.80
18412;DHT22;27097;51.738;19.472;2023-05-18T06:55:17;23.00;62.40
18412;DHT22;27097;51.738;19.472;2023-05-18T06:57:44;23.00;61.20
18412;DHT22;27097;51.738;19.472;2023-05-18T07:00:11;23.00;59.80
18412;DHT22;27097;51.738;19.472;2023-05-18T07:02:44;23.00;61.20
18412;DHT22;27097;51.738;19.472;2023-05-18T07:05:13;23.00;62.90
18412;DHT22;27097;51.738;19.472;2023-05-18T07:07:41;23.00;62.20
18412;DHT22;27097;51.738;19.472;2023-05-18T07:10:08;23.00;61.10
18412;DHT22;27097;51.738;19.472;2023-05-18T07:12:35;23.00;60.40
18412;DHT22;27097;51.738;19.472;2023-05-18T07:15:03;23.00;62.20
18412;DHT22;27097;51.738;19.472;2023-05-18T07:31:06;23.00;63.00
18412;DHT22;27097;51.738;19.472;2023-05-18T07:33:33;23.00;60.10
18412;DHT22;27097;51.738;19.472;2023-05-18T07:36:15;23.00;59.40
18412;DHT22;27097;51.738;19.472;2023-05-18T07:38:41;23.00;60.70
18412;DHT22;27097;51.738;19.472;2023-05-18T07:41:08;23.00;59.20
18412;DHT22;27097;51.738;19.472;2023-05-18T07:43:35;23.00;58.80
18412;DHT22;27097;51.738;19.472;2023-05-18T07:58:06;23.00;59.60
18412;DHT22;27097;51.738;19.472;2023-05-18T08:00:34;23.10;61.20
18412;DHT22;27097;51.738;19.472;2023-05-18T08:03:02;23.10;62.40
18412;DHT22;27097;51.738;19.472;2023-05-18T08:05:31;23.10;62.50
18412;DHT22;27097;51.738;19.472;2023-05-18T08:07:57;23.10;63.40
18412;DHT22;27097;51.738;19.472;2023-05-18T08:10:24;23.10;65.30
18412;DHT22;27097;51.738;19.472;2023-05-18T08:12:51;23.10;66.80
18412;DHT22;27097;51.738;19.472;2023-05-18T08:15:18;23.10;67.60
18412;DHT22;27097;51.738;19.472;2023-05-18T08:17:45;23.00;67.80
18412;DHT22;27097;51.738;19.472;2023-05-18T08:20:14;23.00;68.00
18412;DHT22;27097;51.738;19.472;2023-05-18T08:22:42;23.00;68.70
18412;DHT22;27097;51.738;19.472;2023-05-18T08:25:09;23.00;68.20
18412;DHT22;27097;51.738;19.472;2023-05-18T08:27:36;23.00;68.60
18412;DHT22;27097;51.738;19.472;2023-05-18T08:30:03;23.00;61.70
18412;DHT22;27097;51.738;19.472;2023-05-18T08:32:34;23.00;63.00
18412;DHT22;27097;51.738;19.472;2023-05-18T08:35:02;23.10;67.20
18412;DHT22;27097;51.738;19.472;2023-05-18T08:37:30;23.10;68.70
18412;DHT22;27097;51.738;19.472;2023-05-18T08:39:57;23.10;67.10
18412;DHT22;27097;51.738;19.472;2023-05-18T08:42:31;23.10;65.40
18412;DHT22;27097;51.738;19.472;2023-05-18T08:45:09;23.10;62.90
18412;DHT22;27097;51.738;19.472;2023-05-18T08:47:37;23.20;62.60
18412;DHT22;27097;51.738;19.472;2023-05-18T08:52:46;23.20;64.30
18412;DHT22;27097;51.738;19.472;2023-05-18T08:55:19;23.20;63.10
18412;DHT22;27097;51.738;19.472;2023-05-18T08:57:58;23.30;63.10
18412;DHT22;27097;51.738;19.472;2023-05-18T09:00:27;23.30;60.70
18412;DHT22;27097;51.738;19.472;2023-05-18T09:02:54;23.30;63.40
18412;DHT22;27097;51.738;19.472;2023-05-18T09:06:00;23.30;62.30
18412;DHT22;27097;51.738;19.472;2023-05-18T09:08:30;23.30;63.60
18412;DHT22;27097;51.738;19.472;2023-05-18T09:11:07;23.30;64.30
18412;DHT22;27097;51.738;19.472;2023-05-18T09:13:37;23.30;65.40
18412;DHT22;27097;51.738;19.472;2023-05-18T09:16:24;23.30;66.70
18412;DHT22;27097;51.738;19.472;2023-05-18T09:19:01;23.30;63.10
18412;DHT22;27097;51.738;19.472;2023-05-18T09:21:29;23.30;64.80
18412;DHT22;27097;51.738;19.472;2023-05-18T09:23:59;23.40;64.10
18412;DHT22;27097;51.738;19.472;2023-05-18T09:26:26;23.40;66.10
18412;DHT22;27097;51.738;19.472;2023-05-18T09:28:53;23.40;67.10
18412;DHT22;27097;51.738;19.472;2023-05-18T09:31:21;23.40;66.50
18412;DHT22;27097;51.738;19.472;2023-05-18T09:33:49;23.40;67.70
18412;DHT22;27097;51.738;19.472;2023-05-18T09:36:23;23.50;67.60
18412;DHT22;27097;51.738;19.472;2023-05-18T09:38:50;23.50;68.10
18412;DHT22;27097;51.738;19.472;2023-05-18T09:41:19;23.50;67.40
18412;DHT22;27097;51.738;19.472;2023-05-18T09:44:06;23.50;67.10
18412;DHT22;27097;51.738;19.472;2023-05-18T09:46:35;23.50;65.40
18412;DHT22;27097;51.738;19.472;2023-05-18T09:49:03;23.50;66.50
18412;DHT22;27097;51.738;19.472;2023-05-18T09:51:33;23.50;68.50
18412;DHT22;27097;51.738;19.472;2023-05-18T09:54:00;23.50;67.10
18412;DHT22;27097;51.738;19.472;2023-05-18T09:56:34;23.50;67.10
18412;DHT22;27097;51.738;19.472;2023-05-18T09:59:07;23.50;68.70
18412;DHT22;27097;51.738;19.472;2023-05-18T10:01:35;23.50;67.60
18412;DHT22;27097;51.738;19.472;2023-05-18T10:04:03;23.50;65.10
18412;DHT22;27097;51.738;19.472;2023-05-18T10:06:30;23.60;68.40
18412;DHT22;27097;51.738;19.472;2023-05-18T10:12:26;23.60;64.00
18412;DHT22;27097;51.738;19.472;2023-05-18T10:17:56;23.60;65.50
18412;DHT22;27097;51.738;19.472;2023-05-18T10:20:25;23.60;65.80
18412;DHT22;27097;51.738;19.472;2023-05-18T10:22:54;23.60;65.40
18412;DHT22;27097;51.738;19.472;2023-05-18T10:25:23;23.60;65.60
18412;DHT22;27097;51.738;19.472;2023-05-18T10:27:55;23.60;68.80
18412;DHT22;27097;51.738;19.472;2023-05-18T10:30:22;23.60;63.90
18412;DHT22;27097;51.738;19.472;2023-05-18T10:32:50;23.60;65.50
18412;DHT22;27097;51.738;19.472;2023-05-18T10:37:45;23.60;65.60
18412;DHT22;27097;51.738;19.472;2023-05-18T10:40:26;23.50;66.30
18412;DHT22;27097;51.738;19.472;2023-05-18T10:42:56;23.50;68.10
18412;DHT22;27097;51.738;19.472;2023-05-18T10:45:32;23.50;66.30
18412;DHT22;27097;51.738;19.472;2023-05-18T10:48:01;23.50;64.20
18412;DHT22;27097;51.738;19.472;2023-05-18T10:50:30;23.50;63.40
18412;DHT22;27097;51.738;19.472;2023-05-18T10:52:58;23.50;64.50
18412;DHT22;27097;51.738;19.472;2023-05-18T10:55:25;23.50;65.00
18412;DHT22;27097;51.738;19.472;2023-05-18T10:57:58;23.50;66.10
18412;DHT22;27097;51.738;19.472;2023-05-18T11:00:29;23.50;64.70
18412;DHT22;27097;51.738;19.472;2023-05-18T11:02:57;23.50;66.70
18412;DHT22;27097;51.738;19.472;2023-05-18T11:05:24;23.50;66.00
18412;DHT22;27097;51.738;19.472;2023-05-18T11:07:59;23.50;67.30
18412;DHT22;27097;51.738;19.472;2023-05-18T11:10:33;23.50;65.90
18412;DHT22;27097;51.738;19.472;2023-05-18T11:13:02;23.50;64.90
18412;DHT22;27097;51.738;19.472;2023-05-18T11:16:06;23.50;64.70
18412;DHT22;27097;51.738;19.472;2023-05-18T11:18:40;23.50;66.20
18412;DHT22;27097;51.738;19.472;2023-05-18T11:21:29;23.50;65.30
18412;DHT22;27097;51.738;19.472;2023-05-18T11:24:21;23.50;64.50
18412;DHT22;27097;51.738;19.472;2023-05-18T11:26:49;23.50;65.80
18412;DHT22;27097;51.738;19.472;2023-05-18T11:29:30;23.50;64.70
18412;DHT22;27097;51.738;19.472;2023-05-18T11:31:57;23.50;66.80
18412;DHT22;27097;51.738;19.472;2023-05-18T11:34:40;23.50;64.70
18412;DHT22;27097;51.738;19.472;2023-05-18T11:37:12;23.50;64.90
18412;DHT22;27097;51.738;19.472;2023-05-18T11:39:39;23.40;63.60
18412;DHT22;27097;51.738;19.472;2023-05-18T11:42:08;23.40;65.10
18412;DHT22;27097;51.738;19.472;2023-05-18T11:44:37;23.40;63.70
18412;DHT22;27097;51.738;19.472;2023-05-18T11:47:07;23.40;62.20
18412;DHT22;27097;51.738;19.472;2023-05-18T11:49:42;23.40;62.30
18412;DHT22;27097;51.738;19.472;2023-05-18T11:52:15;23.40;64.60
18412;DHT22;27097;51.738;19.472;2023-05-18T11:54:44;23.40;63.30
18412;DHT22;27097;51.738;19.472;2023-05-18T11:57:12;23.40;62.60
18412;DHT22;27097;51.738;19.472;2023-05-18T11:59:42;23.40;62.30
18412;DHT22;27097;51.738;19.472;2023-05-18T12:02:11;23.40;62.40
18412;DHT22;27097;51.738;19.472;2023-05-18T12:04:43;23.30;65.70
18412;DHT22;27097;51.738;19.472;2023-05-18T12:07:11;23.30;63.30
18412;DHT22;27097;51.738;19.472;2023-05-18T12:09:39;23.40;62.30
18412;DHT22;27097;51.738;19.472;2023-05-18T12:12:07;23.30;63.60
18412;DHT22;27097;51.738;19.472;2023-05-18T12:14:37;23.30;63.90
18412;DHT22;27097;51.738;19.472;2023-05-18T12:17:06;23.30;62.70
18412;DHT22;27097;51.738;19.472;2023-05-18T12:19:37;23.30;62.90
18412;DHT22;27097;51.738;19.472;2023-05-18T12:22:04;23.30;64.60
18412;DHT22;27097;51.738;19.472;2023-05-18T12:24:31;23.30;65.40
18412;DHT22;27097;51.738;19.472;2023-05-18T12:26:58;23.30;63.30
18412;DHT22;27097;51.738;19.472;2023-05-18T12:29:29;23.30;65.40
18412;DHT22;27097;51.738;19.472;2023-05-18T12:31:55;23.30;64.30
18412;DHT22;27097;51.738;19.472;2023-05-18T12:34:28;23.30;62.90
18412;DHT22;27097;51.738;19.472;2023-05-18T12:36:55;23.30;62.70
18412;DHT22;27097;51.738;19.472;2023-05-18T12:39:24;23.30;64.10
18412;DHT22;27097;51.738;19.472;2023-05-18T12:41:51;23.30;63.80
18412;DHT22;27097;51.738;19.472;2023-05-18T12:44:17;23.30;63.30
18412;DHT22;27097;51.738;19.472;2023-05-18T12:46:44;23.30;64.90
18412;DHT22;27097;51.738;19.472;2023-05-18T12:49:12;23.30;61.10
18412;DHT22;27097;51.738;19.472;2023-05-18T12:51:40;23.20;63.00
18412;DHT22;27097;51.738;19.472;2023-05-18T12:54:07;23.20;60.00
18412;DHT22;27097;51.738;19.472;2023-05-18T12:56:53;23.20;63.40
18412;DHT22;27097;51.738;19.472;2023-05-18T12:59:25;23.20;63.70
18412;DHT22;27097;51.738;19.472;2023-05-18T13:02:01;23.20;61.30
18412;DHT22;27097;51.738;19.472;2023-05-18T13:04:32;23.20;62.00
18412;DHT22;27097;51.738;19.472;2023-05-18T13:07:01;23.20;62.00
18412;DHT22;27097;51.738;19.472;2023-05-18T13:09:27;23.20;59.90
18412;DHT22;27097;51.738;19.472;2023-05-18T13:11:59;23.20;63.70
18412;DHT22;27097;51.738;19.472;2023-05-18T13:14:26;23.20;64.80
18412;DHT22;27097;51.738;19.472;2023-05-18T13:16:58;23.20;64.40
18412;DHT22;27097;51.738;19.472;2023-05-18T13:19:25;23.20;60.80
18412;DHT22;27097;51.738;19.472;2023-05-18T13:21:56;23.10;61.80
18412;DHT22;27097;51.738;19.472;2023-05-18T13:24:24;23.10;63.70
18412;DHT22;27097;51.738;19.472;2023-05-18T13:26:51;23.10;63.50
18412;DHT22;27097;51.738;19.472;2023-05-18T13:29:18;23.10;65.40
18412;DHT22;27097;51.738;19.472;2023-05-18T13:31:47;23.10;65.20
18412;DHT22;27097;51.738;19.472;2023-05-18T13:34:17;23.20;63.90
18412;DHT22;27097;51.738;19.472;2023-05-18T13:36:44;23.20;61.50
18412;DHT22;27097;51.738;19.472;2023-05-18T13:39:11;23.20;60.10
18412;DHT22;27097;51.738;19.472;2023-05-18T13:41:39;23.20;62.40
18412;DHT22;27097;51.738;19.472;2023-05-18T13:44:06;23.20;63.60
18412;DHT22;27097;51.738;19.472;2023-05-18T13:46:35;23.20;64.10
18412;DHT22;27097;51.738;19.472;2023-05-18T13:49:02;23.20;64.30
18412;DHT22;27097;51.738;19.472;2023-05-18T13:51:29;23.20;63.50
18412;DHT22;27097;51.738;19.472;2023-05-18T13:53:57;23.20;64.30
18412;DHT22;27097;51.738;19.472;2023-05-18T13:56:23;23.30;63.90
18412;DHT22;27097;51.738;19.472;2023-05-18T13:58:53;23.30;64.80
18412;DHT22;27097;51.738;19.472;2023-05-18T14:01:20;23.20;64.90
18412;DHT22;27097;51.738;19.472;2023-05-18T14:03:47;23.30;64.10
18412;DHT22;27097;51.738;19.472;2023-05-18T14:06:14;23.20;65.30
18412;DHT22;27097;51.738;19.472;2023-05-18T14:08:41;23.20;62.10
18412;DHT22;27097;51.738;19.472;2023-05-18T14:11:08;23.20;65.00
18412;DHT22;27097;51.738;19.472;2023-05-18T14:13:35;23.20;65.30
18412;DHT22;27097;51.738;19.472;2023-05-18T14:16:04;23.20;63.40
18412;DHT22;27097;51.738;19.472;2023-05-18T14:18:31;23.20;64.60
18412;DHT22;27097;51.738;19.472;2023-05-18T14:20:58;23.20;63.60
18412;DHT22;27097;51.738;19.472;2023-05-18T14:23:26;23.20;64.10
18412;DHT22;27097;51.738;19.472;2023-05-18T14:25:53;23.20;65.20
18412;DHT22;27097;51.738;19.472;2023-05-18T14:28:20;23.20;65.50
18412;DHT22;27097;51.738;19.472;2023-05-18T14:30:47;23.20;63.90
18412;DHT22;27097;51.738;19.472;2023-05-18T14:35:51;23.20;65.40
18412;DHT22;27097;51.738;19.472;2023-05-18T14:38:17;23.20;63.40
18412;DHT22;27097;51.738;19.472;2023-05-18T14:40:44;23.20;62.90
18412;DHT22;27097;51.738;19.472;2023-05-18T14:43:11;23.20;63.00
18412;DHT22;27097;51.738;19.472;2023-05-18T14:45:38;23.20;64.90
18412;DHT22;27097;51.738;19.472;2023-05-18T14:48:05;23.20;65.20
18412;DHT22;27097;51.738;19.472;2023-05-18T14:50:34;23.20;61.40
18412;DHT22;27097;51.738;19.472;2023-05-18T14:53:02;23.20;62.30
18412;DHT22;27097;51.738;19.472;2023-05-18T14:55:29;23.20;61.50
18412;DHT22;27097;51.738;19.472;2023-05-18T14:58:02;23.20;62.70
18412;DHT22;27097;51.738;19.472;2023-05-18T15:00:32;23.20;61.30
18412;DHT22;27097;51.738;19.472;2023-05-18T15:02:59;23.20;64.50
18412;DHT22;27097;51.738;19.472;2023-05-18T15:05:28;23.20;64.40
18412;DHT22;27097;51.738;19.472;2023-05-18T15:07:55;23.20;59.90
18412;DHT22;27097;51.738;19.472;2023-05-18T15:10:23;23.20;63.20
18412;DHT22;27097;51.738;19.472;2023-05-18T15:12:50;23.20;61.80
18412;DHT22;27097;51.738;19.472;2023-05-18T15:15:17;23.20;62.50
18412;DHT22;27097;51.738;19.472;2023-05-18T15:17:47;23.20;63.10
18412;DHT22;27097;51.738;19.472;2023-05-18T15:20:14;23.20;61.10
18412;DHT22;27097;51.738;19.472;2023-05-18T15:22:41;23.10;60.50
18412;DHT22;27097;51.738;19.472;2023-05-18T15:25:08;23.20;60.80
18412;DHT22;27097;51.738;19.472;2023-05-18T15:27:36;23.20;59.90
18412;DHT22;27097;51.738;19.472;2023-05-18T15:30:07;23.20;63.00
18412;DHT22;27097;51.738;19.472;2023-05-18T15:32:36;23.10;64.20
18412;DHT22;27097;51.738;19.472;2023-05-18T15:35:03;23.10;60.50
18412;DHT22;27097;51.738;19.472;2023-05-18T15:37:30;23.10;62.40
18412;DHT22;27097;51.738;19.472;2023-05-18T15:39:58;23.10;60.90
18412;DHT22;27097;51.738;19.472;2023-05-18T15:42:26;23.10;60.30
18412;DHT22;27097;51.738;19.472;2023-05-18T15:44:54;23.10;60.80
18412;DHT22;27097;51.738;19.472;2023-05-18T15:47:21;23.10;60.10
18412;DHT22;27097;51.738;19.472;2023-05-18T15:49:48;23.10;59.90
18412;DHT22;27097;51.738;19.472;2023-05-18T15:52:17;23.10;61.60
18412;DHT22;27097;51.738;19.472;2023-05-18T15:54:44;23.10;61.20
18412;DHT22;27097;51.738;19.472;2023-05-18T15:57:11;23.10;61.40
18412;DHT22;27097;51.738;19.472;2023-05-18T15:59:38;23.10;59.10
18412;DHT22;27097;51.738;19.472;2023-05-18T16:02:08;23.10;59.70
18412;DHT22;27097;51.738;19.472;2023-05-18T16:04:35;23.10;58.00
18412;DHT22;27097;51.738;19.472;2023-05-18T16:07:02;23.10;58.90